• Join FlightAware (Why Join?)
  • Login
  • US Flag 
06:05AM EDT


 

Airport Tracker/Info


-or-


 

Live Flight TrackerFlight Track Log ✈ RAX1022 ✈ 07-May-2013 ✈ KSDF - KHKS

Flight Track Log - Related Links

Times and Time Zones

All times are in EDT time to prevent confusion due to time zone crossing. See the RAX1022 flight status page for this flight to view local times or setup timezone preferences in your user account.

Time Position Orientation Groundspeed Altitude Reporting Facility
EDT Latitude Longitude Course Direction KTS MPH feet Rate Location/Type
02:08PM 38.1847 -85.8275 278° West 115 132 3,500  Level Indianapolis Center
02:09PM 38.1747 -85.8808 257° West 126 145 5,200 1,320 Climbing Indianapolis Center
02:10PM 38.1689 -85.9247 260° West 125 144 6,300 1,080 Climbing Indianapolis Center
02:11PM 38.1467 -85.9619 233° Southwest 134 154 7,500 780 Climbing Indianapolis Center
02:12PM 38.1133 -85.9925 216° Southwest 145 167 8,000 240 Climbing Indianapolis Center
02:13PM 38.0706 -86.0297 214° Southwest 173 199 8,000  Level Indianapolis Center
02:14PM 38.0214 -86.0611 207° Southwest 191 220 8,000  Level Indianapolis Center
02:15PM 37.9756 -86.1006 214° Southwest 197 227 8,000  Level Indianapolis Center
02:16PM 37.9283 -86.1378 212° Southwest 199 229 8,000  Level Indianapolis Center
02:17PM 37.8814 -86.1744 212° Southwest 198 228 8,000  Level Indianapolis Center
02:18PM 37.8247 -86.2208 213° Southwest 200 230 8,000  Level Indianapolis Center
02:19PM 37.7767 -86.2575 211° Southwest 200 230 8,000  Level Indianapolis Center
02:20PM 37.7292 -86.2964 213° Southwest 200 230 8,000  Level Indianapolis Center
02:21PM 37.6811 -86.3336 212° Southwest 202 232 8,000  Level Indianapolis Center
02:22PM 37.6325 -86.3714 212° Southwest 203 234 8,000  Level Indianapolis Center
02:23PM 37.5847 -86.4072 211° Southwest 200 230 8,000  Level Indianapolis Center
02:24PM 37.5333 -86.4486 213° Southwest 201 231 8,100  Climbing Indianapolis Center
02:25PM 37.4856 -86.4883 213° Southwest 203 234 8,100  Level Indianapolis Center
02:26PM 37.4369 -86.5256 211° Southwest 204 235 8,100  Level Indianapolis Center
02:27PM 37.3836 -86.5669 212° Southwest 203 234 8,100  Level Indianapolis Center
02:28PM 37.3619 -86.5864 216° Southwest 205 236 8,100  Level Memphis Center
02:29PM 37.3175 -86.6250 215° Southwest 205 236 8,100  Level Memphis Center
02:30PM 37.2686 -86.6611 210° Southwest 205 236 8,100  Level Memphis Center
02:30PM 37.2419 -86.6781 207° Southwest 205 236 8,100  Level Memphis Center
02:31PM 37.2175 -86.6975 212° Southwest 205 236 8,100  Level Memphis Center
02:31PM 37.2033 -86.7111 217° Southwest 204 235 8,100  Level Memphis Center
02:32PM 37.1644 -86.7389 210° Southwest 205 236 8,100  Level Memphis Center
02:32PM 37.1483 -86.7525 214° Southwest 204 235 8,100  Level Memphis Center
02:33PM 37.1175 -86.7747 210° Southwest 205 236 8,100  Level Memphis Center
02:33PM 37.0972 -86.7889 209° Southwest 203 234 8,100  Level Memphis Center
02:34PM 37.0686 -86.8133 214° Southwest 205 236 8,100  Level Memphis Center
02:34PM 37.0525 -86.8272 215° Southwest 202 232 8,100  Level Memphis Center
02:35PM 37.0197 -86.8494 208° Southwest 205 236 8,100  Level Memphis Center
02:35PM 37.0075 -86.8603 215° Southwest 204 235 8,100  Level Memphis Center
02:36PM 36.9731 -86.8878 213° Southwest 205 236 8,100  Level Memphis Center
02:36PM 36.9586 -86.8961 205° Southwest 204 235 8,100  Level Memphis Center
02:37PM 36.9261 -86.9236 214° Southwest 205 236 8,100  Level Memphis Center
02:37PM 36.9097 -86.9372 214° Southwest 204 235 8,100  Level Memphis Center
02:38PM 36.8769 -86.9619 211° Southwest 205 236 8,100  Level Memphis Center
02:38PM 36.8606 -86.9706 203° Southwest 204 235 8,100  Level Memphis Center
02:39PM 36.8300 -86.9978 215° Southwest 205 236 8,100  Level Memphis Center
02:39PM 36.8117 -87.0114 211° Southwest 205 236 8,100  Level Memphis Center
02:40PM 36.7811 -87.0358 213° Southwest 205 236 8,100  Level Memphis Center
02:40PM 36.7544 -87.0525 207° Southwest 204 235 8,100  Level Memphis Center
02:41PM 36.7319 -87.0717 214° Southwest 205 236 8,100  Level Memphis Center
02:41PM 36.7097 -87.0906 214° Southwest 204 235 8,100  Level Memphis Center
02:42PM 36.6831 -87.1097 210° Southwest 205 236 8,100  Level Memphis Center
02:42PM 36.6667 -87.1208 209° Southwest 206 237 8,100  Level Memphis Center
02:43PM 36.6400 -87.1425 213° Southwest 205 236 8,100  Level Memphis Center
02:43PM 36.6156 -87.1592 209° Southwest 204 235 8,100  Level Memphis Center
02:44PM 36.5911 -87.1781 212° Southwest 205 236 8,100  Level Memphis Center
02:44PM 36.5644 -87.2000 213° Southwest 204 235 8,100  Level Memphis Center
02:45PM 36.5419 -87.2164 210° Southwest 211 243 8,100  Level Memphis Center
02:46PM 36.4950 -87.2517 211° Southwest 217 250 8,100  Level Memphis Center
02:47PM 36.4458 -87.2897 212° Southwest 207 238 8,100  Level Memphis Center
02:48PM 36.3967 -87.3250 210° Southwest 207 238 8,100  Level Memphis Center
02:49PM 36.3494 -87.3603 211° Southwest 207 238 8,100  Level Memphis Center
02:50PM 36.3003 -87.3956 210° Southwest 207 238 8,100  Level Memphis Center
02:51PM 36.2511 -87.4333 212° Southwest 207 238 8,100  Level Memphis Center
02:52PM 36.2042 -87.4686 211° Southwest 202 232 8,100  Level Memphis Center
02:53PM 36.1531 -87.5089 212° Southwest 202 232 8,100  Level Memphis Center
02:54PM 36.1036 -87.5439 210° Southwest 207 238 8,100  Level Memphis Center
02:55PM 36.0544 -87.5792 210° Southwest 207 238 8,100  Level Memphis Center
02:56PM 36.0053 -87.6167 212° Southwest 207 238 8,100  Level Memphis Center
02:57PM 35.9581 -87.6517 211° Southwest 207 238 8,100  Level Memphis Center
02:58PM 35.9108 -87.6864 211° Southwest 207 238 8,100  Level Memphis Center
02:59PM 35.8594 -87.7239 211° Southwest 207 238 8,100  Level Memphis Center
03:00PM 35.8144 -87.7586 212° Southwest 207 238 8,100  Level Memphis Center
03:01PM 35.7631 -87.7936 209° Southwest 207 238 8,100  Level Memphis Center
03:02PM 35.7158 -87.8308 213° Southwest 202 232 8,100  Level Memphis Center
03:03PM 35.6725 -87.8628 211° Southwest 202 232 8,100  Level Memphis Center
03:04PM 35.6233 -87.8975 210° Southwest 202 232 8,100  Level Memphis Center
03:05PM 35.5739 -87.9322 210° Southwest 202 232 8,100  Level Memphis Center
03:06PM 35.5244 -87.9667 210° Southwest 208 239 8,100  Level Memphis Center
03:07PM 35.4753 -88.0039 212° Southwest 208 239 8,100  Level Memphis Center
03:08PM 35.4278 -88.0408 212° Southwest 203 234 8,100  Level Memphis Center
03:09PM 35.3786 -88.0856 217° Southwest 203 234 8,100  Level Memphis Center
03:10PM 35.3292 -88.1200 210° Southwest 208 239 8,100  Level Memphis Center
03:11PM 35.2797 -88.1569 211° Southwest 208 239 8,100  Level Memphis Center
03:12PM 35.2325 -88.1911 211° Southwest 208 239 8,100  Level Memphis Center
03:13PM 35.1831 -88.2281 211° Southwest 208 239 8,100  Level Memphis Center
03:14PM 35.1336 -88.2622 209° Southwest 208 239 8,100  Level Memphis Center
03:15PM 35.0842 -88.2992 211° Southwest 208 239 8,100  Level Memphis Center
03:16PM 35.0347 -88.3358 211° Southwest 203 234 8,100  Level Memphis Center
03:17PM 34.9831 -88.3725 210° Southwest 208 239 8,100  Level Memphis Center
03:18PM 34.9336 -88.4067 210° Southwest 208 239 8,100  Level Memphis Center
03:19PM 34.8861 -88.4431 212° Southwest 208 239 8,100  Level Memphis Center
03:20PM 34.8367 -88.4772 210° Southwest 208 239 8,100 -300 Level Memphis Center
03:21PM 34.7911 -88.5136 213° Southwest 208 239 7,600 -480 Descending Memphis Center
03:22PM 34.7356 -88.5528 210° Southwest 208 239 7,200 -600 Descending Memphis Center
03:23PM 34.6839 -88.5892 210° Southwest 214 246 6,500 -600 Descending Memphis Center
03:24PM 34.6322 -88.6256 210° Southwest 214 246 6,000 -480 Descending Memphis Center
03:25PM 34.5847 -88.6619 212° Southwest 214 246 5,600 -540 Descending Memphis Center
03:26PM 34.5372 -88.6981 212° Southwest 208 239 5,000 -720 Descending Memphis Center
03:27PM 34.4897 -88.7319 210° Southwest 202 232 4,200 -600 Descending Memphis Center
03:28PM 34.4464 -88.7681 215° Southwest 202 232 3,900 -180 Descending Memphis Center
03:29PM 34.4008 -88.8014 211° Southwest 202 232 3,900  Level Memphis Center
03:30PM 34.3636 -88.8247 207° Southwest 186 214 3,900  Level Memphis Center
03:31PM 34.3222 -88.8558 212° Southwest 181 208 3,900  Level Memphis Center
03:32PM 34.2744 -88.8892 210° Southwest 179 206 3,900  Level Memphis Center
03:33PM 34.2394 -88.9125 209° Southwest 179 206 3,900  Level Memphis Center
03:33PM 34.2269 -88.9153 190° South 175 201 3,900  Level Memphis Center
03:34PM 34.1958 -88.9408 214° Southwest 180 207 3,900  Level Memphis Center
03:35PM 34.1442 -88.9744 208° Southwest 180 207 3,900  Level Memphis Center
03:36PM 34.1006 -89.0050 210° Southwest 179 206 3,900  Level Memphis Center
03:37PM 34.0569 -89.0308 206° Southwest 181 208 3,900  Level Memphis Center
03:38PM 34.0072 -89.0667 211° Southwest 180 207 4,000  Climbing Memphis Center
03:39PM 33.9681 -89.0900 206° Southwest 180 207 3,900 -60 Descending Memphis Center
03:40PM 33.9222 -89.1206 209° Southwest 182 209 3,900  Level Memphis Center
03:41PM 33.8725 -89.1539 209° Southwest 180 207 3,900  Level Memphis Center
03:42PM 33.8372 -89.1742 206° Southwest 179 206 3,900  Level Memphis Center
03:43PM 33.7853 -89.2075 208° Southwest 190 219 3,900  Level Memphis Center
03:44PM 33.7439 -89.2356 209° Southwest 195 224 3,900  Level Memphis Center
03:45PM 33.7003 -89.2661 210° Southwest 189 217 3,900  Level Memphis Center
03:46PM 33.6589 -89.2992 214° Southwest 184 212 3,900  Level Memphis Center
03:47PM 33.6175 -89.3344 215° Southwest 184 212 3,900  Level Memphis Center
03:48PM 33.5761 -89.3672 213° Southwest 184 212 3,900  Level Memphis Center
03:49PM 33.5344 -89.4028 215° Southwest 189 217 3,900  Level Memphis Center
03:50PM 33.4950 -89.4356 215° Southwest 189 217 3,900  Level Memphis Center
03:51PM 33.4536 -89.4708 215° Southwest 189 217 3,900  Level Memphis Center
03:52PM 33.4122 -89.5036 213° Southwest 189 217 4,000  Climbing Memphis Center
03:53PM 33.3706 -89.5389 215° Southwest 189 217 3,900 -60 Descending Memphis Center
03:54PM 33.3292 -89.5717 213° Southwest 189 217 3,900  Level Memphis Center
03:55PM 33.2833 -89.5992 207° Southwest 189 217 3,900  Level Memphis Center
03:56PM 33.2397 -89.6269 208° Southwest 183 211 3,900  Level Memphis Center
03:57PM 33.1939 -89.6522 205° Southwest 178 205 3,900  Level Memphis Center
03:58PM 33.1481 -89.6800 207° Southwest 178 205 3,900  Level Memphis Center
03:59PM 33.1044 -89.7075 208° Southwest 178 205 3,900  Level Memphis Center
04:00PM 33.0608 -89.7350 208° Southwest 178 205 3,900  Level Memphis Center
04:01PM 33.0169 -89.7628 208° Southwest 178 205 3,900  Level Memphis Center
04:02PM 32.9711 -89.7928 209° Southwest 178 205 3,900  Level Memphis Center
04:03PM 32.9275 -89.8203 208° Southwest 178 205 3,900  Level Memphis Center
04:04PM 32.8817 -89.8478 207° Southwest 178 205 4,000  Climbing Memphis Center
04:05PM 32.8381 -89.8775 210° Southwest 178 205 3,900 -60 Descending Memphis Center
04:06PM 32.7942 -89.9075 210° Southwest 183 211 3,900 -120 Level Memphis Center
04:07PM 32.7506 -89.9397 212° Southwest 183 211 3,700 -300 Descending Memphis Center
04:08PM 32.7067 -89.9722 212° Southwest 183 211 3,300 -360 Descending Memphis Center
04:09PM 32.6608 -90.0019 209° Southwest 183 211 3,000 -540 Descending Memphis Center
04:10PM 32.6172 -90.0342 212° Southwest 183 211 2,300 -540 Descending Memphis Center
04:11PM 32.5714 -90.0639 209° Southwest 183 211 2,000 -180 Descending Memphis Center
04:12PM 32.5297 -90.0911 209° Southwest 183 211 2,000  Level Memphis Center
04:13PM 32.4881 -90.1183 209° Southwest 183 211 2,100  Climbing Memphis Center
04:14PM 32.4442 -90.1406 203° Southwest 178 205 2,000 -120 Descending Memphis Center
04:15PM 32.4003 -90.1653 205° Southwest 178 205 1,900 -60 Descending Memphis Center
04:16PM 32.3628 -90.1853 204° Southwest 173 199 1,900 -240 Level Memphis Center
04:17PM 32.3272 -90.1828 177° South 150 173 1,500 -420 Descending Memphis Center
04:19PM 32.3333 -90.2167 209° Southwest  Level FlightAware Approximate
04:26PM 32.3348 -90.2225 209° Southwest  Level Estimated
04:27PM 32.3333 -90.2167 209° Southwest  Level FlightAware Approximate